sensor_id;sensor_type;location;lat;lon;timestamp;P1;durP1;ratioP1;P2;durP2;ratioP2
19889;SDS011;10107;51.198;6.824;2023-07-16T00:03:45;4.15;;;2.40;;
19889;SDS011;10107;51.198;6.824;2023-07-16T00:07:47;3.60;;;2.20;;
19889;SDS011;10107;51.198;6.824;2023-07-16T00:11:49;3.35;;;2.00;;
19889;SDS011;10107;51.198;6.824;2023-07-16T00:15:50;2.88;;;1.63;;
19889;SDS011;10107;51.198;6.824;2023-07-16T00:19:53;3.60;;;2.20;;
19889;SDS011;10107;51.198;6.824;2023-07-16T00:23:55;3.40;;;1.83;;
19889;SDS011;10107;51.198;6.824;2023-07-16T00:27:57;4.15;;;1.90;;
19889;SDS011;10107;51.198;6.824;2023-07-16T00:31:59;2.92;;;1.88;;
19889;SDS011;10107;51.198;6.824;2023-07-16T00:36:02;3.22;;;1.70;;
19889;SDS011;10107;51.198;6.824;2023-07-16T00:40:04;6.47;;;2.00;;
19889;SDS011;10107;51.198;6.824;2023-07-16T00:44:08;3.30;;;1.85;;
19889;SDS011;10107;51.198;6.824;2023-07-16T00:48:09;2.58;;;1.52;;
19889;SDS011;10107;51.198;6.824;2023-07-16T00:52:14;4.18;;;1.73;;
19889;SDS011;10107;51.198;6.824;2023-07-16T00:56:19;2.55;;;1.55;;
19889;SDS011;10107;51.198;6.824;2023-07-16T01:00:22;3.27;;;1.67;;
19889;SDS011;10107;51.198;6.824;2023-07-16T01:04:24;2.08;;;1.45;;
19889;SDS011;10107;51.198;6.824;2023-07-16T01:08:29;1.98;;;1.52;;
19889;SDS011;10107;51.198;6.824;2023-07-16T01:12:33;4.07;;;2.13;;
19889;SDS011;10107;51.198;6.824;2023-07-16T01:16:36;3.22;;;1.40;;
19889;SDS011;10107;51.198;6.824;2023-07-16T01:20:37;4.70;;;2.13;;
19889;SDS011;10107;51.198;6.824;2023-07-16T01:24:46;2.65;;;1.67;;
19889;SDS011;10107;51.198;6.824;2023-07-16T01:29:11;3.88;;;1.60;;
19889;SDS011;10107;51.198;6.824;2023-07-16T01:33:28;5.15;;;1.80;;
19889;SDS011;10107;51.198;6.824;2023-07-16T01:37:30;4.47;;;1.70;;
19889;SDS011;10107;51.198;6.824;2023-07-16T01:41:32;3.50;;;1.60;;
19889;SDS011;10107;51.198;6.824;2023-07-16T01:45:35;2.72;;;1.80;;
19889;SDS011;10107;51.198;6.824;2023-07-16T01:49:37;3.88;;;1.90;;
19889;SDS011;10107;51.198;6.824;2023-07-16T01:53:39;5.22;;;2.30;;
19889;SDS011;10107;51.198;6.824;2023-07-16T01:57:40;8.07;;;2.20;;
19889;SDS011;10107;51.198;6.824;2023-07-16T02:01:43;4.15;;;2.13;;
19889;SDS011;10107;51.198;6.824;2023-07-16T02:05:45;3.60;;;1.77;;
19889;SDS011;10107;51.198;6.824;2023-07-16T02:09:47;2.42;;;1.88;;
19889;SDS011;10107;51.198;6.824;2023-07-16T02:13:48;5.05;;;2.22;;
19889;SDS011;10107;51.198;6.824;2023-07-16T02:17:51;3.70;;;1.80;;
19889;SDS011;10107;51.198;6.824;2023-07-16T02:21:53;6.10;;;1.93;;
19889;SDS011;10107;51.198;6.824;2023-07-16T02:25:54;7.00;;;2.30;;
19889;SDS011;10107;51.198;6.824;2023-07-16T02:29:56;5.88;;;1.90;;
19889;SDS011;10107;51.198;6.824;2023-07-16T02:33:59;4.90;;;2.25;;
19889;SDS011;10107;51.198;6.824;2023-07-16T02:38:01;3.92;;;1.40;;
19889;SDS011;10107;51.198;6.824;2023-07-16T02:42:03;5.05;;;2.05;;
19889;SDS011;10107;51.198;6.824;2023-07-16T02:46:05;5.15;;;2.20;;
19889;SDS011;10107;51.198;6.824;2023-07-16T02:50:09;4.90;;;2.30;;
19889;SDS011;10107;51.198;6.824;2023-07-16T02:54:11;6.30;;;2.35;;
19889;SDS011;10107;51.198;6.824;2023-07-16T02:58:13;6.25;;;2.20;;
19889;SDS011;10107;51.198;6.824;2023-07-16T03:02:14;5.22;;;2.10;;
19889;SDS011;10107;51.198;6.824;2023-07-16T03:06:18;3.90;;;2.30;;
19889;SDS011;10107;51.198;6.824;2023-07-16T03:10:19;4.27;;;2.73;;
19889;SDS011;10107;51.198;6.824;2023-07-16T03:14:22;7.47;;;2.97;;
19889;SDS011;10107;51.198;6.824;2023-07-16T03:18:27;5.82;;;2.95;;
19889;SDS011;10107;51.198;6.824;2023-07-16T03:22:30;5.88;;;2.33;;
19889;SDS011;10107;51.198;6.824;2023-07-16T03:26:32;7.85;;;2.70;;
19889;SDS011;10107;51.198;6.824;2023-07-16T03:30:34;4.57;;;2.80;;
19889;SDS011;10107;51.198;6.824;2023-07-16T03:34:37;4.63;;;2.63;;
19889;SDS011;10107;51.198;6.824;2023-07-16T03:38:40;6.03;;;3.08;;
19889;SDS011;10107;51.198;6.824;2023-07-16T03:42:42;6.20;;;2.77;;
19889;SDS011;10107;51.198;6.824;2023-07-16T03:46:44;7.70;;;2.72;;
19889;SDS011;10107;51.198;6.824;2023-07-16T03:50:46;6.35;;;2.65;;
19889;SDS011;10107;51.198;6.824;2023-07-16T03:54:49;6.45;;;2.80;;
19889;SDS011;10107;51.198;6.824;2023-07-16T03:58:50;7.10;;;2.93;;
19889;SDS011;10107;51.198;6.824;2023-07-16T04:02:52;5.38;;;2.22;;
19889;SDS011;10107;51.198;6.824;2023-07-16T04:06:54;4.38;;;2.40;;
19889;SDS011;10107;51.198;6.824;2023-07-16T04:10:57;4.25;;;2.40;;
19889;SDS011;10107;51.198;6.824;2023-07-16T04:14:59;5.50;;;2.53;;
19889;SDS011;10107;51.198;6.824;2023-07-16T04:19:01;6.82;;;2.70;;
19889;SDS011;10107;51.198;6.824;2023-07-16T04:23:03;4.78;;;2.38;;
19889;SDS011;10107;51.198;6.824;2023-07-16T04:27:06;5.72;;;2.80;;
19889;SDS011;10107;51.198;6.824;2023-07-16T04:31:08;7.07;;;3.20;;
19889;SDS011;10107;51.198;6.824;2023-07-16T04:35:09;4.97;;;3.08;;
19889;SDS011;10107;51.198;6.824;2023-07-16T04:39:11;5.40;;;3.78;;
19889;SDS011;10107;51.198;6.824;2023-07-16T04:43:14;6.13;;;3.33;;
19889;SDS011;10107;51.198;6.824;2023-07-16T04:47:16;7.03;;;3.13;;
19889;SDS011;10107;51.198;6.824;2023-07-16T04:51:17;6.43;;;2.53;;
19889;SDS011;10107;51.198;6.824;2023-07-16T04:55:19;6.32;;;2.60;;
19889;SDS011;10107;51.198;6.824;2023-07-16T04:59:22;4.53;;;2.53;;
19889;SDS011;10107;51.198;6.824;2023-07-16T05:03:24;4.35;;;1.95;;
19889;SDS011;10107;51.198;6.824;2023-07-16T05:07:25;6.22;;;2.33;;
19889;SDS011;10107;51.198;6.824;2023-07-16T05:11:27;4.80;;;2.50;;
19889;SDS011;10107;51.198;6.824;2023-07-16T05:15:31;4.68;;;2.40;;
19889;SDS011;10107;51.198;6.824;2023-07-16T05:19:33;6.32;;;2.47;;
19889;SDS011;10107;51.198;6.824;2023-07-16T05:23:34;4.63;;;2.25;;
19889;SDS011;10107;51.198;6.824;2023-07-16T05:27:36;5.53;;;2.50;;
19889;SDS011;10107;51.198;6.824;2023-07-16T05:31:39;4.82;;;2.28;;
19889;SDS011;10107;51.198;6.824;2023-07-16T05:35:41;4.47;;;2.40;;
19889;SDS011;10107;51.198;6.824;2023-07-16T05:39:42;3.88;;;2.50;;
19889;SDS011;10107;51.198;6.824;2023-07-16T05:43:44;4.75;;;2.17;;
19889;SDS011;10107;51.198;6.824;2023-07-16T05:47:47;6.43;;;2.50;;
19889;SDS011;10107;51.198;6.824;2023-07-16T05:51:49;3.53;;;2.55;;
19889;SDS011;10107;51.198;6.824;2023-07-16T05:55:50;5.20;;;2.67;;
19889;SDS011;10107;51.198;6.824;2023-07-16T05:59:52;4.57;;;2.47;;
19889;SDS011;10107;51.198;6.824;2023-07-16T06:03:55;5.57;;;2.75;;
19889;SDS011;10107;51.198;6.824;2023-07-16T06:07:56;7.45;;;2.78;;
19889;SDS011;10107;51.198;6.824;2023-07-16T06:11:58;5.25;;;3.05;;
19889;SDS011;10107;51.198;6.824;2023-07-16T06:16:00;4.82;;;2.78;;
19889;SDS011;10107;51.198;6.824;2023-07-16T06:20:03;4.15;;;2.83;;
19889;SDS011;10107;51.198;6.824;2023-07-16T06:24:06;5.38;;;3.28;;
19889;SDS011;10107;51.198;6.824;2023-07-16T06:28:07;5.38;;;3.03;;
19889;SDS011;10107;51.198;6.824;2023-07-16T06:32:09;5.63;;;3.40;;
19889;SDS011;10107;51.198;6.824;2023-07-16T06:36:12;6.18;;;3.20;;
19889;SDS011;10107;51.198;6.824;2023-07-16T06:40:15;3.97;;;2.85;;
19889;SDS011;10107;51.198;6.824;2023-07-16T06:44:16;7.13;;;3.72;;
19889;SDS011;10107;51.198;6.824;2023-07-16T06:48:18;7.03;;;3.97;;
19889;SDS011;10107;51.198;6.824;2023-07-16T06:52:21;5.75;;;3.45;;
19889;SDS011;10107;51.198;6.824;2023-07-16T06:56:24;6.55;;;3.40;;
19889;SDS011;10107;51.198;6.824;2023-07-16T07:00:27;5.33;;;3.47;;
19889;SDS011;10107;51.198;6.824;2023-07-16T07:04:28;4.93;;;3.22;;
19889;SDS011;10107;51.198;6.824;2023-07-16T07:08:31;6.60;;;3.30;;
19889;SDS011;10107;51.198;6.824;2023-07-16T07:12:33;6.82;;;3.90;;
19889;SDS011;10107;51.198;6.824;2023-07-16T07:16:37;7.40;;;3.72;;
19889;SDS011;10107;51.198;6.824;2023-07-16T07:20:40;5.68;;;3.55;;
19889;SDS011;10107;51.198;6.824;2023-07-16T07:24:43;6.55;;;3.78;;
19889;SDS011;10107;51.198;6.824;2023-07-16T07:28:44;7.10;;;3.75;;
19889;SDS011;10107;51.198;6.824;2023-07-16T07:32:46;8.73;;;4.15;;
19889;SDS011;10107;51.198;6.824;2023-07-16T07:36:47;6.57;;;3.70;;
19889;SDS011;10107;51.198;6.824;2023-07-16T07:40:50;6.07;;;4.00;;
19889;SDS011;10107;51.198;6.824;2023-07-16T07:44:53;6.03;;;3.65;;
19889;SDS011;10107;51.198;6.824;2023-07-16T07:48:54;9.20;;;4.40;;
19889;SDS011;10107;51.198;6.824;2023-07-16T07:52:56;5.20;;;3.20;;
19889;SDS011;10107;51.198;6.824;2023-07-16T07:57:01;6.93;;;3.75;;
19889;SDS011;10107;51.198;6.824;2023-07-16T08:01:04;8.48;;;3.75;;
19889;SDS011;10107;51.198;6.824;2023-07-16T08:05:07;5.80;;;3.63;;
19889;SDS011;10107;51.198;6.824;2023-07-16T08:09:09;6.03;;;3.65;;
19889;SDS011;10107;51.198;6.824;2023-07-16T08:13:12;6.28;;;3.95;;
19889;SDS011;10107;51.198;6.824;2023-07-16T08:17:14;5.90;;;3.92;;
19889;SDS011;10107;51.198;6.824;2023-07-16T08:26:38;6.95;;;3.42;;
19889;SDS011;10107;51.198;6.824;2023-07-16T08:30:41;6.40;;;3.47;;
19889;SDS011;10107;51.198;6.824;2023-07-16T08:38:44;8.43;;;3.70;;
19889;SDS011;10107;51.198;6.824;2023-07-16T08:42:45;6.82;;;3.35;;
19889;SDS011;10107;51.198;6.824;2023-07-16T08:46:48;5.05;;;3.05;;
19889;SDS011;10107;51.198;6.824;2023-07-16T08:50:51;5.68;;;3.30;;
19889;SDS011;10107;51.198;6.824;2023-07-16T08:54:53;5.47;;;3.22;;
19889;SDS011;10107;51.198;6.824;2023-07-16T08:58:55;5.85;;;3.42;;
19889;SDS011;10107;51.198;6.824;2023-07-16T09:02:58;7.50;;;3.70;;
19889;SDS011;10107;51.198;6.824;2023-07-16T09:07:00;5.30;;;3.20;;
19889;SDS011;10107;51.198;6.824;2023-07-16T09:11:02;6.43;;;3.35;;
19889;SDS011;10107;51.198;6.824;2023-07-16T09:15:04;4.68;;;3.10;;
19889;SDS011;10107;51.198;6.824;2023-07-16T09:19:09;5.65;;;3.20;;
19889;SDS011;10107;51.198;6.824;2023-07-16T09:23:15;7.00;;;3.10;;
19889;SDS011;10107;51.198;6.824;2023-07-16T09:27:19;7.45;;;3.13;;
19889;SDS011;10107;51.198;6.824;2023-07-16T09:31:21;4.87;;;2.77;;
19889;SDS011;10107;51.198;6.824;2023-07-16T09:35:24;4.53;;;2.83;;
19889;SDS011;10107;51.198;6.824;2023-07-16T09:39:27;4.13;;;3.10;;
19889;SDS011;10107;51.198;6.824;2023-07-16T09:43:29;4.60;;;3.27;;
19889;SDS011;10107;51.198;6.824;2023-07-16T09:47:31;7.88;;;3.88;;
19889;SDS011;10107;51.198;6.824;2023-07-16T09:51:34;4.57;;;3.47;;
19889;SDS011;10107;51.198;6.824;2023-07-16T09:55:37;5.10;;;3.40;;
19889;SDS011;10107;51.198;6.824;2023-07-16T09:59:39;4.28;;;3.00;;
19889;SDS011;10107;51.198;6.824;2023-07-16T10:03:47;4.63;;;3.03;;
19889;SDS011;10107;51.198;6.824;2023-07-16T10:07:51;5.68;;;3.22;;
19889;SDS011;10107;51.198;6.824;2023-07-16T10:11:54;5.32;;;2.83;;
19889;SDS011;10107;51.198;6.824;2023-07-16T10:15:57;4.68;;;3.10;;
19889;SDS011;10107;51.198;6.824;2023-07-16T10:20:02;4.75;;;2.70;;
19889;SDS011;10107;51.198;6.824;2023-07-16T10:24:15;4.70;;;2.65;;
19889;SDS011;10107;51.198;6.824;2023-07-16T10:28:18;4.05;;;2.85;;
19889;SDS011;10107;51.198;6.824;2023-07-16T10:32:20;4.70;;;3.03;;
19889;SDS011;10107;51.198;6.824;2023-07-16T10:36:21;4.85;;;2.53;;
19889;SDS011;10107;51.198;6.824;2023-07-16T10:40:25;4.88;;;3.03;;
19889;SDS011;10107;51.198;6.824;2023-07-16T10:44:27;5.85;;;3.05;;
19889;SDS011;10107;51.198;6.824;2023-07-16T10:48:29;5.32;;;3.13;;
19889;SDS011;10107;51.198;6.824;2023-07-16T10:52:30;7.72;;;3.20;;
19889;SDS011;10107;51.198;6.824;2023-07-16T10:56:35;5.00;;;3.20;;
19889;SDS011;10107;51.198;6.824;2023-07-16T11:00:38;4.72;;;2.80;;
19889;SDS011;10107;51.198;6.824;2023-07-16T11:08:42;4.53;;;3.00;;
19889;SDS011;10107;51.198;6.824;2023-07-16T11:12:49;4.30;;;2.80;;
19889;SDS011;10107;51.198;6.824;2023-07-16T11:16:52;5.22;;;2.85;;
19889;SDS011;10107;51.198;6.824;2023-07-16T11:20:54;5.90;;;3.10;;
19889;SDS011;10107;51.198;6.824;2023-07-16T11:24:56;3.63;;;2.80;;
19889;SDS011;10107;51.198;6.824;2023-07-16T11:28:59;5.78;;;2.85;;
19889;SDS011;10107;51.198;6.824;2023-07-16T11:33:01;4.82;;;2.97;;
19889;SDS011;10107;51.198;6.824;2023-07-16T11:37:09;3.95;;;2.80;;
19889;SDS011;10107;51.198;6.824;2023-07-16T11:41:12;7.10;;;3.25;;
19889;SDS011;10107;51.198;6.824;2023-07-16T11:45:18;4.95;;;3.05;;
19889;SDS011;10107;51.198;6.824;2023-07-16T11:49:23;6.25;;;2.97;;
19889;SDS011;10107;51.198;6.824;2023-07-16T11:53:24;5.07;;;2.90;;
19889;SDS011;10107;51.198;6.824;2023-07-16T11:57:27;5.03;;;2.63;;
19889;SDS011;10107;51.198;6.824;2023-07-16T12:01:30;4.93;;;3.08;;
19889;SDS011;10107;51.198;6.824;2023-07-16T12:05:32;5.68;;;2.72;;
19889;SDS011;10107;51.198;6.824;2023-07-16T12:09:33;3.72;;;2.50;;
19889;SDS011;10107;51.198;6.824;2023-07-16T12:13:35;5.38;;;2.90;;
19889;SDS011;10107;51.198;6.824;2023-07-16T12:17:39;3.95;;;2.72;;
19889;SDS011;10107;51.198;6.824;2023-07-16T12:21:41;4.82;;;2.80;;
19889;SDS011;10107;51.198;6.824;2023-07-16T12:25:43;5.10;;;2.95;;
19889;SDS011;10107;51.198;6.824;2023-07-16T12:29:44;4.55;;;3.00;;
19889;SDS011;10107;51.198;6.824;2023-07-16T12:33:47;5.68;;;2.40;;
19889;SDS011;10107;51.198;6.824;2023-07-16T12:41:51;7.25;;;2.97;;
19889;SDS011;10107;51.198;6.824;2023-07-16T12:45:52;6.22;;;3.33;;
19889;SDS011;10107;51.198;6.824;2023-07-16T12:49:55;4.63;;;2.92;;
19889;SDS011;10107;51.198;6.824;2023-07-16T12:53:57;4.70;;;2.83;;
19889;SDS011;10107;51.198;6.824;2023-07-16T12:58:01;5.43;;;3.28;;
19889;SDS011;10107;51.198;6.824;2023-07-16T13:02:03;5.60;;;3.25;;
19889;SDS011;10107;51.198;6.824;2023-07-16T13:06:06;5.72;;;3.05;;
19889;SDS011;10107;51.198;6.824;2023-07-16T13:10:08;5.07;;;2.80;;
19889;SDS011;10107;51.198;6.824;2023-07-16T13:14:10;7.75;;;3.20;;
19889;SDS011;10107;51.198;6.824;2023-07-16T13:18:12;3.88;;;2.53;;
19889;SDS011;10107;51.198;6.824;2023-07-16T13:22:15;3.60;;;2.60;;
19889;SDS011;10107;51.198;6.824;2023-07-16T13:26:17;4.53;;;2.65;;
19889;SDS011;10107;51.198;6.824;2023-07-16T13:30:18;4.68;;;2.78;;
19889;SDS011;10107;51.198;6.824;2023-07-16T13:34:20;3.35;;;2.67;;
19889;SDS011;10107;51.198;6.824;2023-07-16T13:38:23;6.55;;;2.70;;
19889;SDS011;10107;51.198;6.824;2023-07-16T13:42:25;6.03;;;3.00;;
19889;SDS011;10107;51.198;6.824;2023-07-16T13:46:26;3.35;;;2.47;;
19889;SDS011;10107;51.198;6.824;2023-07-16T13:50:28;4.47;;;2.72;;
19889;SDS011;10107;51.198;6.824;2023-07-16T13:54:31;4.13;;;2.78;;
19889;SDS011;10107;51.198;6.824;2023-07-16T13:58:33;4.28;;;2.47;;
19889;SDS011;10107;51.198;6.824;2023-07-16T14:02:35;3.60;;;2.42;;
19889;SDS011;10107;51.198;6.824;2023-07-16T14:06:36;3.80;;;2.55;;
19889;SDS011;10107;51.198;6.824;2023-07-16T14:10:40;3.90;;;2.40;;
19889;SDS011;10107;51.198;6.824;2023-07-16T14:14:41;4.53;;;2.30;;
19889;SDS011;10107;51.198;6.824;2023-07-16T14:18:43;5.32;;;2.90;;
19889;SDS011;10107;51.198;6.824;2023-07-16T14:22:45;5.70;;;2.60;;
19889;SDS011;10107;51.198;6.824;2023-07-16T14:26:48;4.85;;;2.38;;
19889;SDS011;10107;51.198;6.824;2023-07-16T14:30:50;4.82;;;2.88;;
19889;SDS011;10107;51.198;6.824;2023-07-16T14:34:51;4.15;;;2.38;;
19889;SDS011;10107;51.198;6.824;2023-07-16T14:38:53;5.75;;;2.75;;
19889;SDS011;10107;51.198;6.824;2023-07-16T14:42:56;4.32;;;2.60;;
19889;SDS011;10107;51.198;6.824;2023-07-16T14:46:58;4.30;;;2.38;;
19889;SDS011;10107;51.198;6.824;2023-07-16T14:50:59;3.97;;;2.47;;
19889;SDS011;10107;51.198;6.824;2023-07-16T14:55:03;4.53;;;2.47;;
19889;SDS011;10107;51.198;6.824;2023-07-16T14:59:07;5.85;;;2.33;;
19889;SDS011;10107;51.198;6.824;2023-07-16T15:07:11;6.60;;;3.03;;
19889;SDS011;10107;51.198;6.824;2023-07-16T15:11:12;5.47;;;2.53;;
19889;SDS011;10107;51.198;6.824;2023-07-16T15:15:15;3.70;;;2.42;;
19889;SDS011;10107;51.198;6.824;2023-07-16T15:19:17;4.40;;;2.53;;
19889;SDS011;10107;51.198;6.824;2023-07-16T15:23:20;4.38;;;2.40;;
19889;SDS011;10107;51.198;6.824;2023-07-16T15:27:21;4.50;;;2.90;;
19889;SDS011;10107;51.198;6.824;2023-07-16T15:31:26;4.03;;;2.83;;
19889;SDS011;10107;51.198;6.824;2023-07-16T15:35:28;4.85;;;2.95;;
19889;SDS011;10107;51.198;6.824;2023-07-16T15:39:30;3.88;;;2.72;;
19889;SDS011;10107;51.198;6.824;2023-07-16T15:43:31;6.18;;;2.80;;
19889;SDS011;10107;51.198;6.824;2023-07-16T15:47:34;5.15;;;2.65;;
19889;SDS011;10107;51.198;6.824;2023-07-16T15:51:36;4.07;;;2.70;;
19889;SDS011;10107;51.198;6.824;2023-07-16T15:55:40;4.22;;;2.65;;
19889;SDS011;10107;51.198;6.824;2023-07-16T15:59:42;5.88;;;2.92;;
19889;SDS011;10107;51.198;6.824;2023-07-16T16:03:45;5.13;;;2.50;;
19889;SDS011;10107;51.198;6.824;2023-07-16T16:12:11;4.40;;;2.83;;
19889;SDS011;10107;51.198;6.824;2023-07-16T16:16:13;3.92;;;2.70;;
19889;SDS011;10107;51.198;6.824;2023-07-16T16:20:17;4.25;;;2.53;;
19889;SDS011;10107;51.198;6.824;2023-07-16T16:24:19;4.85;;;3.10;;
19889;SDS011;10107;51.198;6.824;2023-07-16T16:28:21;4.32;;;2.90;;
19889;SDS011;10107;51.198;6.824;2023-07-16T16:32:23;4.20;;;2.75;;
19889;SDS011;10107;51.198;6.824;2023-07-16T16:36:26;4.03;;;2.65;;
19889;SDS011;10107;51.198;6.824;2023-07-16T16:40:28;6.18;;;3.20;;
19889;SDS011;10107;51.198;6.824;2023-07-16T16:44:30;3.95;;;2.75;;
19889;SDS011;10107;51.198;6.824;2023-07-16T16:48:31;4.90;;;3.05;;
19889;SDS011;10107;51.198;6.824;2023-07-16T16:52:37;3.65;;;2.60;;
19889;SDS011;10107;51.198;6.824;2023-07-16T16:56:39;4.53;;;2.45;;
19889;SDS011;10107;51.198;6.824;2023-07-16T17:00:40;5.35;;;2.85;;
19889;SDS011;10107;51.198;6.824;2023-07-16T17:04:42;4.63;;;2.72;;
19889;SDS011;10107;51.198;6.824;2023-07-16T17:08:46;5.03;;;2.75;;
19889;SDS011;10107;51.198;6.824;2023-07-16T17:12:47;4.60;;;2.55;;
19889;SDS011;10107;51.198;6.824;2023-07-16T17:16:49;5.13;;;2.83;;
19889;SDS011;10107;51.198;6.824;2023-07-16T17:20:51;4.13;;;2.70;;
19889;SDS011;10107;51.198;6.824;2023-07-16T17:24:55;4.38;;;2.78;;
19889;SDS011;10107;51.198;6.824;2023-07-16T17:28:56;5.38;;;2.45;;
19889;SDS011;10107;51.198;6.824;2023-07-16T17:32:58;3.85;;;2.55;;
19889;SDS011;10107;51.198;6.824;2023-07-16T17:37:00;5.20;;;2.63;;
19889;SDS011;10107;51.198;6.824;2023-07-16T17:41:03;5.90;;;3.08;;
19889;SDS011;10107;51.198;6.824;2023-07-16T17:45:05;4.82;;;2.80;;
19889;SDS011;10107;51.198;6.824;2023-07-16T17:49:08;5.60;;;3.00;;
19889;SDS011;10107;51.198;6.824;2023-07-16T17:53:10;6.43;;;2.88;;
19889;SDS011;10107;51.198;6.824;2023-07-16T17:57:13;5.18;;;3.03;;
19889;SDS011;10107;51.198;6.824;2023-07-16T18:01:14;5.00;;;2.70;;
19889;SDS011;10107;51.198;6.824;2023-07-16T18:05:16;3.70;;;2.53;;
19889;SDS011;10107;51.198;6.824;2023-07-16T18:09:18;6.15;;;2.45;;
19889;SDS011;10107;51.198;6.824;2023-07-16T18:13:21;5.57;;;3.13;;
19889;SDS011;10107;51.198;6.824;2023-07-16T18:17:24;4.05;;;2.75;;
19889;SDS011;10107;51.198;6.824;2023-07-16T18:21:27;4.63;;;2.70;;
19889;SDS011;10107;51.198;6.824;2023-07-16T18:25:30;5.72;;;3.20;;
19889;SDS011;10107;51.198;6.824;2023-07-16T18:29:32;5.10;;;2.97;;
19889;SDS011;10107;51.198;6.824;2023-07-16T18:33:34;3.97;;;2.90;;
19889;SDS011;10107;51.198;6.824;2023-07-16T18:37:36;4.82;;;2.83;;
19889;SDS011;10107;51.198;6.824;2023-07-16T18:41:37;3.60;;;2.72;;
19889;SDS011;10107;51.198;6.824;2023-07-16T18:45:41;4.75;;;2.80;;
19889;SDS011;10107;51.198;6.824;2023-07-16T18:49:43;5.50;;;3.08;;
19889;SDS011;10107;51.198;6.824;2023-07-16T18:53:45;5.40;;;3.13;;
19889;SDS011;10107;51.198;6.824;2023-07-16T18:57:47;5.05;;;2.90;;
19889;SDS011;10107;51.198;6.824;2023-07-16T19:01:49;5.07;;;3.00;;
19889;SDS011;10107;51.198;6.824;2023-07-16T19:05:51;4.85;;;2.95;;
19889;SDS011;10107;51.198;6.824;2023-07-16T19:09:53;5.28;;;3.38;;
19889;SDS011;10107;51.198;6.824;2023-07-16T19:13:55;3.72;;;2.78;;
19889;SDS011;10107;51.198;6.824;2023-07-16T19:17:59;6.05;;;3.03;;
19889;SDS011;10107;51.198;6.824;2023-07-16T19:22:01;4.38;;;2.90;;
19889;SDS011;10107;51.198;6.824;2023-07-16T19:26:03;4.97;;;2.88;;
19889;SDS011;10107;51.198;6.824;2023-07-16T19:30:05;4.57;;;2.63;;
19889;SDS011;10107;51.198;6.824;2023-07-16T19:34:09;5.00;;;2.90;;
19889;SDS011;10107;51.198;6.824;2023-07-16T19:38:11;4.07;;;2.67;;
19889;SDS011;10107;51.198;6.824;2023-07-16T19:42:12;5.25;;;3.05;;
19889;SDS011;10107;51.198;6.824;2023-07-16T19:46:14;3.95;;;2.80;;
19889;SDS011;10107;51.198;6.824;2023-07-16T19:50:17;6.50;;;3.00;;
19889;SDS011;10107;51.198;6.824;2023-07-16T19:54:19;4.80;;;2.97;;
19889;SDS011;10107;51.198;6.824;2023-07-16T19:58:21;3.80;;;2.75;;
19889;SDS011;10107;51.198;6.824;2023-07-16T20:02:24;3.57;;;2.77;;
19889;SDS011;10107;51.198;6.824;2023-07-16T20:06:28;5.03;;;2.85;;
19889;SDS011;10107;51.198;6.824;2023-07-16T20:10:31;3.67;;;2.90;;
19889;SDS011;10107;51.198;6.824;2023-07-16T20:14:32;5.28;;;3.10;;
19889;SDS011;10107;51.198;6.824;2023-07-16T20:18:34;5.47;;;3.10;;
19889;SDS011;10107;51.198;6.824;2023-07-16T20:22:37;4.72;;;2.85;;
19889;SDS011;10107;51.198;6.824;2023-07-16T20:30:41;4.75;;;2.78;;
19889;SDS011;10107;51.198;6.824;2023-07-16T20:34:43;5.93;;;3.15;;
19889;SDS011;10107;51.198;6.824;2023-07-16T20:38:46;3.83;;;2.70;;
19889;SDS011;10107;51.198;6.824;2023-07-16T20:42:47;5.53;;;3.20;;
19889;SDS011;10107;51.198;6.824;2023-07-16T20:46:49;4.10;;;3.03;;
19889;SDS011;10107;51.198;6.824;2023-07-16T20:50:50;4.97;;;3.00;;
19889;SDS011;10107;51.198;6.824;2023-07-16T20:54:56;4.90;;;3.17;;
19889;SDS011;10107;51.198;6.824;2023-07-16T20:58:57;3.83;;;3.10;;
19889;SDS011;10107;51.198;6.824;2023-07-16T21:03:01;5.65;;;3.22;;
19889;SDS011;10107;51.198;6.824;2023-07-16T21:07:05;4.60;;;3.33;;
19889;SDS011;10107;51.198;6.824;2023-07-16T21:11:09;5.30;;;3.15;;
19889;SDS011;10107;51.198;6.824;2023-07-16T21:15:11;4.57;;;3.00;;
19889;SDS011;10107;51.198;6.824;2023-07-16T21:19:13;4.23;;;3.37;;
19889;SDS011;10107;51.198;6.824;2023-07-16T21:23:15;5.22;;;3.38;;
19889;SDS011;10107;51.198;6.824;2023-07-16T21:27:21;4.68;;;3.03;;
19889;SDS011;10107;51.198;6.824;2023-07-16T21:31:23;6.88;;;3.40;;
19889;SDS011;10107;51.198;6.824;2023-07-16T21:35:25;5.65;;;3.55;;
19889;SDS011;10107;51.198;6.824;2023-07-16T21:39:27;4.28;;;3.30;;
19889;SDS011;10107;51.198;6.824;2023-07-16T21:43:30;5.82;;;3.45;;
19889;SDS011;10107;51.198;6.824;2023-07-16T21:47:31;6.03;;;3.63;;
19889;SDS011;10107;51.198;6.824;2023-07-16T21:51:33;5.13;;;3.88;;
19889;SDS011;10107;51.198;6.824;2023-07-16T21:55:35;6.57;;;3.47;;
19889;SDS011;10107;51.198;6.824;2023-07-16T21:59:38;5.38;;;3.50;;
19889;SDS011;10107;51.198;6.824;2023-07-16T22:03:39;5.63;;;3.53;;
19889;SDS011;10107;51.198;6.824;2023-07-16T22:07:41;4.70;;;3.65;;
19889;SDS011;10107;51.198;6.824;2023-07-16T22:11:43;4.35;;;3.40;;
19889;SDS011;10107;51.198;6.824;2023-07-16T22:15:46;4.55;;;3.50;;
19889;SDS011;10107;51.198;6.824;2023-07-16T22:19:48;5.47;;;3.37;;
19889;SDS011;10107;51.198;6.824;2023-07-16T22:23:50;5.68;;;3.83;;
19889;SDS011;10107;51.198;6.824;2023-07-16T22:27:51;6.63;;;3.65;;
19889;SDS011;10107;51.198;6.824;2023-07-16T22:31:55;6.75;;;3.72;;
19889;SDS011;10107;51.198;6.824;2023-07-16T22:35:57;7.35;;;4.10;;
19889;SDS011;10107;51.198;6.824;2023-07-16T22:39:58;6.40;;;3.75;;
19889;SDS011;10107;51.198;6.824;2023-07-16T22:44:00;5.82;;;3.90;;
19889;SDS011;10107;51.198;6.824;2023-07-16T22:48:03;6.30;;;3.88;;
19889;SDS011;10107;51.198;6.824;2023-07-16T22:52:05;6.00;;;4.05;;
19889;SDS011;10107;51.198;6.824;2023-07-16T22:56:08;6.97;;;4.00;;
19889;SDS011;10107;51.198;6.824;2023-07-16T23:00:10;6.37;;;4.53;;
19889;SDS011;10107;51.198;6.824;2023-07-16T23:04:15;5.85;;;3.80;;
19889;SDS011;10107;51.198;6.824;2023-07-16T23:08:17;5.07;;;3.70;;
19889;SDS011;10107;51.198;6.824;2023-07-16T23:12:18;6.07;;;4.20;;
19889;SDS011;10107;51.198;6.824;2023-07-16T23:16:20;6.80;;;3.90;;
19889;SDS011;10107;51.198;6.824;2023-07-16T23:20:23;7.05;;;3.85;;
19889;SDS011;10107;51.198;6.824;2023-07-16T23:24:25;6.43;;;2.80;;
19889;SDS011;10107;51.198;6.824;2023-07-16T23:28:27;5.90;;;3.72;;
19889;SDS011;10107;51.198;6.824;2023-07-16T23:32:28;6.13;;;4.05;;
19889;SDS011;10107;51.198;6.824;2023-07-16T23:36:31;7.05;;;3.85;;
19889;SDS011;10107;51.198;6.824;2023-07-16T23:40:33;6.50;;;4.13;;
19889;SDS011;10107;51.198;6.824;2023-07-16T23:44:35;6.32;;;4.25;;
19889;SDS011;10107;51.198;6.824;2023-07-16T23:48:36;6.80;;;3.75;;
19889;SDS011;10107;51.198;6.824;2023-07-16T23:52:39;6.50;;;3.97;;
19889;SDS011;10107;51.198;6.824;2023-07-16T23:56:41;6.72;;;3.80;;
